createdAt,value
2022-12-06T00:00:21.926Z,19.25
2022-12-06T00:01:53.645Z,17.88
2022-12-06T00:03:25.425Z,19.27
2022-12-06T00:04:57.154Z,20.13
2022-12-06T00:06:30.060Z,19.60
2022-12-06T00:08:01.773Z,21.08
2022-12-06T00:09:33.542Z,20.27
2022-12-06T00:11:07.829Z,15.73
2022-12-06T00:12:39.493Z,20.02
2022-12-06T00:14:11.469Z,16.25
2022-12-06T00:15:43.307Z,18.35
2022-12-06T00:17:14.978Z,15.80
2022-12-06T00:18:46.837Z,18.40
2022-12-06T00:20:18.678Z,14.02
2022-12-06T00:21:50.575Z,15.85
2022-12-06T00:23:24.045Z,15.80
2022-12-06T00:24:58.278Z,18.60
2022-12-06T00:26:31.436Z,20.30
2022-12-06T00:28:03.123Z,25.80
2022-12-06T00:29:34.978Z,20.23
2022-12-06T00:31:07.383Z,20.80
2022-12-06T00:32:39.095Z,29.08
2022-12-06T00:34:10.768Z,24.77
2022-12-06T00:35:42.482Z,21.02
2022-12-06T00:37:14.170Z,27.45
2022-12-06T00:38:45.994Z,19.95
2022-12-06T00:40:17.866Z,20.23
2022-12-06T00:41:50.939Z,19.75
2022-12-06T00:43:22.609Z,18.90
2022-12-06T00:44:54.323Z,20.30
2022-12-06T00:46:27.212Z,21.42
2022-12-06T00:47:59.005Z,19.75
2022-12-06T00:49:30.715Z,23.85
2022-12-06T00:51:02.429Z,18.98
2022-12-06T00:52:34.125Z,23.33
2022-12-06T00:54:06.153Z,19.98
2022-12-06T00:55:37.832Z,17.83
2022-12-06T00:57:10.997Z,18.33
2022-12-06T00:58:42.757Z,18.85
2022-12-06T01:00:15.293Z,20.77
2022-12-06T01:01:46.973Z,19.67
2022-12-06T01:03:18.704Z,19.13
2022-12-06T01:04:50.555Z,19.55
2022-12-06T01:06:27.379Z,17.05
2022-12-06T01:07:59.115Z,21.00
2022-12-06T01:09:31.059Z,19.17
2022-12-06T01:11:02.741Z,16.92
2022-12-06T01:12:35.717Z,18.38
2022-12-06T01:14:07.378Z,20.35
2022-12-06T01:15:39.030Z,18.90
2022-12-06T01:17:10.767Z,20.05
2022-12-06T01:18:42.657Z,22.17
2022-12-06T01:20:14.259Z,21.45
2022-12-06T01:21:45.947Z,19.63
2022-12-06T01:23:17.642Z,20.98
2022-12-06T01:24:49.295Z,21.63
2022-12-06T01:26:22.291Z,22.95
2022-12-06T01:27:55.279Z,21.05
2022-12-06T01:29:26.905Z,21.70
2022-12-06T01:30:58.534Z,19.25
2022-12-06T01:32:30.266Z,22.27
2022-12-06T01:34:01.879Z,20.98
2022-12-06T01:35:33.560Z,19.75
2022-12-06T01:37:05.183Z,20.33
2022-12-06T01:38:36.873Z,20.67
2022-12-06T01:40:09.923Z,20.77
2022-12-06T01:41:41.682Z,19.52
2022-12-06T01:43:35.408Z,19.05
2022-12-06T01:45:08.169Z,20.02
2022-12-06T01:46:40.225Z,20.73
2022-12-06T01:48:11.952Z,20.45
2022-12-06T01:49:44.559Z,22.05
2022-12-06T01:51:16.222Z,20.25
2022-12-06T01:52:49.410Z,20.75
2022-12-06T01:54:21.196Z,20.23
2022-12-06T01:55:52.814Z,19.00
2022-12-06T01:57:24.457Z,20.23
2022-12-06T01:58:57.963Z,21.85
2022-12-06T02:00:29.581Z,19.75
2022-12-06T02:02:01.235Z,22.85
2022-12-06T02:03:33.475Z,22.60
2022-12-06T02:05:05.658Z,50.15
2022-12-06T02:06:37.287Z,22.52
2022-12-06T02:08:09.979Z,28.27
2022-12-06T02:09:43.833Z,22.02
2022-12-06T02:11:15.490Z,21.77
2022-12-06T02:12:55.337Z,23.42
2022-12-06T02:14:29.979Z,21.45
2022-12-06T02:16:08.150Z,22.00
2022-12-06T02:17:42.061Z,21.85
2022-12-06T02:19:32.780Z,20.83
2022-12-06T02:21:11.070Z,20.65
2022-12-06T02:23:04.117Z,22.67
2022-12-06T02:24:43.360Z,21.02
2022-12-06T02:26:24.897Z,24.73
2022-12-06T02:28:11.540Z,22.00
2022-12-06T02:30:10.977Z,24.23
2022-12-06T02:31:44.807Z,22.40
2022-12-06T02:33:20.236Z,21.20
2022-12-06T02:34:54.738Z,20.17
2022-12-06T02:36:29.392Z,20.27
2022-12-06T02:38:03.361Z,21.50
2022-12-06T02:39:36.131Z,22.88
2022-12-06T02:41:09.937Z,19.77
2022-12-06T02:42:42.564Z,19.10
2022-12-06T02:44:16.806Z,19.35
2022-12-06T02:45:50.998Z,18.88
2022-12-06T02:47:26.059Z,20.00
2022-12-06T02:48:58.906Z,20.58
2022-12-06T02:50:32.112Z,20.35
2022-12-06T02:52:03.918Z,20.35
2022-12-06T02:53:37.865Z,19.33
2022-12-06T02:55:09.583Z,17.40
2022-12-06T02:56:41.215Z,22.88
2022-12-06T02:58:12.856Z,18.98
2022-12-06T02:59:51.802Z,18.77
2022-12-06T03:01:24.575Z,20.00
2022-12-06T03:03:04.306Z,19.65
2022-12-06T03:04:48.874Z,21.13
2022-12-06T03:07:05.269Z,19.25
2022-12-06T03:08:41.456Z,20.33
2022-12-06T03:10:26.753Z,20.67
2022-12-06T03:12:03.910Z,22.15
2022-12-06T03:13:39.571Z,20.63
2022-12-06T03:15:14.419Z,23.50
2022-12-06T03:16:47.961Z,17.98
2022-12-06T03:18:22.118Z,20.80
2022-12-06T03:19:55.881Z,20.17
2022-12-06T03:21:29.863Z,21.38
2022-12-06T03:23:02.666Z,20.33
2022-12-06T03:24:35.527Z,19.67
2022-12-06T03:26:07.290Z,23.50
2022-12-06T03:27:39.435Z,21.15
2022-12-06T03:29:11.100Z,21.10
2022-12-06T03:30:43.758Z,19.83
2022-12-06T03:32:16.263Z,20.67
2022-12-06T03:33:56.181Z,19.00
2022-12-06T03:35:30.584Z,20.13
2022-12-06T03:37:02.254Z,22.42
2022-12-06T03:38:35.621Z,22.05
2022-12-06T03:40:10.151Z,21.50
2022-12-06T03:41:44.638Z,18.55
2022-12-06T03:43:16.297Z,20.48
2022-12-06T03:44:47.881Z,23.67
2022-12-06T03:46:21.107Z,19.90
2022-12-06T03:47:54.590Z,21.42
2022-12-06T03:49:29.056Z,23.70
2022-12-06T03:51:02.646Z,22.00
2022-12-06T03:52:34.294Z,19.98
2022-12-06T03:54:06.879Z,21.08
2022-12-06T03:55:38.599Z,19.73
2022-12-06T03:57:10.207Z,20.00
2022-12-06T03:58:41.984Z,28.55
2022-12-06T04:00:16.575Z,19.73
2022-12-06T04:01:48.224Z,21.73
2022-12-06T04:03:19.980Z,20.17
2022-12-06T04:04:53.027Z,21.23
2022-12-06T04:06:24.677Z,20.92
2022-12-06T04:07:56.373Z,22.30
2022-12-06T04:09:46.788Z,21.45
2022-12-06T04:11:18.551Z,37.92
2022-12-06T04:13:02.483Z,24.80
2022-12-06T04:14:39.270Z,27.13
2022-12-06T04:16:29.377Z,20.83
2022-12-06T04:18:14.017Z,28.50
2022-12-06T04:19:50.679Z,27.85
2022-12-06T04:21:33.815Z,27.73
2022-12-06T04:23:05.411Z,29.15
2022-12-06T04:24:37.113Z,107.95
2022-12-06T04:26:09.684Z,43.00
2022-12-06T04:27:59.605Z,25.20
2022-12-06T04:29:49.653Z,28.63
2022-12-06T04:31:40.222Z,22.27
2022-12-06T04:33:30.550Z,22.25
2022-12-06T04:35:21.041Z,22.67
2022-12-06T04:37:13.742Z,27.58
2022-12-06T04:38:45.375Z,19.50
2022-12-06T04:40:17.002Z,20.50
2022-12-06T04:42:07.307Z,20.38
2022-12-06T04:43:41.959Z,22.15
2022-12-06T04:45:13.620Z,23.63
2022-12-06T04:46:45.301Z,25.52
2022-12-06T04:48:16.953Z,28.15
2022-12-06T04:49:48.591Z,27.30
2022-12-06T04:51:20.263Z,25.58
2022-12-06T04:52:53.250Z,26.20
2022-12-06T04:54:25.642Z,25.45
2022-12-06T04:55:57.240Z,22.05
2022-12-06T04:57:28.857Z,21.48
2022-12-06T04:59:00.478Z,21.00
2022-12-06T05:00:32.193Z,24.48
2022-12-06T05:02:03.860Z,20.98
2022-12-06T05:03:39.541Z,18.65
2022-12-06T05:05:14.288Z,19.70
2022-12-06T05:06:45.940Z,16.75
2022-12-06T05:08:18.969Z,17.45
2022-12-06T05:09:50.676Z,17.77
2022-12-06T05:11:22.294Z,17.13
2022-12-06T05:12:53.906Z,17.90
2022-12-06T05:14:25.549Z,16.95
2022-12-06T05:16:02.230Z,17.98
2022-12-06T05:17:34.182Z,17.55
2022-12-06T05:19:12.289Z,17.38
2022-12-06T05:20:44.024Z,18.55
2022-12-06T05:22:16.258Z,19.70
2022-12-06T05:23:49.380Z,29.23
2022-12-06T05:25:48.129Z,33.15
2022-12-06T05:27:55.344Z,19.42
2022-12-06T05:29:36.477Z,21.80
2022-12-06T05:31:11.351Z,19.50
2022-12-06T05:32:43.075Z,18.73
2022-12-06T05:34:14.800Z,30.83
2022-12-06T05:35:46.528Z,24.60
2022-12-06T05:37:18.188Z,21.35
2022-12-06T05:38:59.137Z,42.85
2022-12-06T05:40:33.359Z,19.85
2022-12-06T05:42:05.182Z,20.25
2022-12-06T05:43:36.795Z,23.40
2022-12-06T05:45:11.898Z,22.10
2022-12-06T05:46:57.488Z,22.88
2022-12-06T05:48:29.198Z,20.35
2022-12-06T05:50:01.216Z,20.98
2022-12-06T05:51:33.123Z,21.58
2022-12-06T05:53:04.741Z,22.48
2022-12-06T05:54:38.552Z,18.98
2022-12-06T05:56:46.817Z,20.38
2022-12-06T05:58:40.112Z,20.63
2022-12-06T06:00:12.937Z,20.35
2022-12-06T06:01:47.858Z,22.67
2022-12-06T06:03:47.979Z,30.65
2022-12-06T06:05:55.159Z,32.13
2022-12-06T06:07:26.793Z,19.98
2022-12-06T06:08:58.848Z,21.63
2022-12-06T06:10:31.924Z,24.45
2022-12-06T06:12:14.030Z,23.52
2022-12-06T06:13:45.657Z,23.40
2022-12-06T06:15:17.493Z,23.92
2022-12-06T06:16:52.320Z,23.35
2022-12-06T06:18:24.351Z,27.10
2022-12-06T06:19:56.012Z,26.98
2022-12-06T06:21:27.786Z,30.65
2022-12-06T06:22:59.546Z,20.63
2022-12-06T06:24:38.140Z,23.80
2022-12-06T06:26:11.859Z,38.42
2022-12-06T06:27:43.510Z,41.25
2022-12-06T06:29:15.626Z,39.30
2022-12-06T06:30:47.286Z,32.05
2022-12-06T06:32:20.115Z,28.98
2022-12-06T06:33:51.732Z,33.13
2022-12-06T06:35:23.440Z,27.58
2022-12-06T06:36:55.130Z,42.42
2022-12-06T06:38:26.727Z,28.17
2022-12-06T06:39:58.742Z,22.15
2022-12-06T06:41:31.886Z,26.42
2022-12-06T06:43:18.207Z,27.25
2022-12-06T06:44:50.204Z,23.05
2022-12-06T06:46:21.896Z,22.23
2022-12-06T06:47:55.526Z,21.95
2022-12-06T06:49:27.141Z,21.98
2022-12-06T06:51:02.197Z,22.33
2022-12-06T06:52:33.935Z,24.25
2022-12-06T06:54:05.663Z,23.42
2022-12-06T06:55:37.633Z,25.08
2022-12-06T06:57:17.154Z,25.95
2022-12-06T06:58:49.371Z,23.50
2022-12-06T07:00:21.366Z,23.17
2022-12-06T07:01:53.036Z,26.42
2022-12-06T07:03:24.889Z,26.77
2022-12-06T07:04:56.500Z,24.55
2022-12-06T07:06:28.164Z,27.52
2022-12-06T07:07:59.891Z,28.40
2022-12-06T07:09:31.525Z,24.73
2022-12-06T07:11:03.308Z,26.83
2022-12-06T07:12:36.294Z,27.23
2022-12-06T07:14:07.969Z,24.65
2022-12-06T07:15:39.590Z,30.65
2022-12-06T07:17:11.274Z,28.27
2022-12-06T07:18:43.016Z,32.38
2022-12-06T07:20:14.761Z,28.17
2022-12-06T07:21:46.609Z,23.92
2022-12-06T07:23:18.316Z,27.17
2022-12-06T07:24:52.636Z,43.03
2022-12-06T07:26:24.445Z,26.08
2022-12-06T07:27:57.481Z,23.90
2022-12-06T07:29:29.075Z,24.08
2022-12-06T07:31:10.164Z,23.15
2022-12-06T07:32:41.890Z,27.25
2022-12-06T07:34:13.511Z,28.35
2022-12-06T07:36:12.590Z,26.88
2022-12-06T07:37:41.543Z,26.75
2022-12-06T07:39:14.941Z,32.63
2022-12-06T07:42:56.930Z,24.73
2022-12-06T07:44:48.532Z,26.50
2022-12-06T07:46:20.351Z,26.58
2022-12-06T07:47:52.062Z,26.02
2022-12-06T07:49:23.678Z,23.40
2022-12-06T07:50:55.434Z,26.38
2022-12-06T07:52:55.151Z,23.98
2022-12-06T07:54:27.128Z,24.30
2022-12-06T07:56:08.181Z,23.45
2022-12-06T07:57:43.383Z,24.58
2022-12-06T07:59:18.681Z,22.67
2022-12-06T08:00:51.748Z,23.85
2022-12-06T08:02:24.118Z,24.02
2022-12-06T08:04:02.132Z,24.70
2022-12-06T08:05:36.379Z,26.75
2022-12-06T08:07:08.520Z,27.90
2022-12-06T08:08:42.983Z,24.80
2022-12-06T08:10:32.605Z,31.10
2022-12-06T08:12:04.670Z,25.25
2022-12-06T08:13:39.102Z,21.98
2022-12-06T08:15:13.604Z,25.73
2022-12-06T08:16:46.617Z,32.78
2022-12-06T08:18:18.217Z,28.60
2022-12-06T08:19:49.871Z,26.10
2022-12-06T08:21:28.307Z,35.88
2022-12-06T08:23:02.802Z,28.73
2022-12-06T08:24:34.404Z,32.80
2022-12-06T08:26:20.295Z,29.92
2022-12-06T08:27:54.853Z,25.10
2022-12-06T08:29:28.054Z,22.77
2022-12-06T08:31:03.290Z,35.10
2022-12-06T08:32:38.493Z,28.42
2022-12-06T08:34:13.044Z,26.55
2022-12-06T08:35:47.769Z,23.33
2022-12-06T08:37:19.398Z,27.90
2022-12-06T08:38:53.957Z,27.08
2022-12-06T08:40:32.537Z,21.35
2022-12-06T08:42:08.515Z,20.45
2022-12-06T08:43:40.137Z,20.80
2022-12-06T08:45:11.793Z,21.25
2022-12-06T08:46:43.495Z,21.02
2022-12-06T08:48:16.532Z,25.65
2022-12-06T08:49:49.464Z,26.30
2022-12-06T08:51:21.292Z,24.45
2022-12-06T08:52:52.923Z,20.52
2022-12-06T08:54:24.751Z,23.30
2022-12-06T08:56:02.859Z,19.48
2022-12-06T08:57:34.892Z,20.65
2022-12-06T08:59:07.018Z,22.25
2022-12-06T09:00:41.681Z,23.27
2022-12-06T09:02:13.699Z,20.63
2022-12-06T09:03:46.790Z,20.25
2022-12-06T09:05:21.478Z,19.02
2022-12-06T09:06:53.255Z,20.45
2022-12-06T09:08:24.961Z,19.85
2022-12-06T09:09:56.757Z,17.42
2022-12-06T09:11:28.369Z,17.20
2022-12-06T09:13:00.038Z,16.30
2022-12-06T09:14:31.639Z,17.35
2022-12-06T09:16:05.863Z,18.55
2022-12-06T09:17:42.761Z,18.42
2022-12-06T09:19:15.907Z,26.08
2022-12-06T09:20:47.578Z,24.85
2022-12-06T09:22:24.722Z,18.23
2022-12-06T09:23:59.276Z,17.05
2022-12-06T09:25:30.913Z,14.68
2022-12-06T09:27:02.549Z,14.73
2022-12-06T09:28:38.686Z,15.52
2022-12-06T09:30:10.879Z,15.85
2022-12-06T09:31:42.585Z,13.10
2022-12-06T09:33:16.934Z,16.83
2022-12-06T09:34:58.645Z,15.98
2022-12-06T09:36:30.498Z,16.63
2022-12-06T09:38:03.637Z,15.75
2022-12-06T09:39:36.649Z,16.80
2022-12-06T09:41:12.291Z,15.13
2022-12-06T09:42:49.609Z,14.82
2022-12-06T09:44:33.042Z,15.90
2022-12-06T09:46:12.563Z,16.33
2022-12-06T09:47:53.466Z,20.30
2022-12-06T09:49:31.726Z,19.48
2022-12-06T09:51:10.107Z,21.50
2022-12-06T09:52:49.535Z,27.77
2022-12-06T09:54:30.809Z,22.48
2022-12-06T09:56:06.418Z,23.35
2022-12-06T09:57:42.346Z,24.02
2022-12-06T09:59:16.916Z,23.45
2022-12-06T10:00:49.655Z,25.02
2022-12-06T10:02:27.343Z,24.17
2022-12-06T10:04:11.236Z,27.40
2022-12-06T10:05:54.037Z,25.52
2022-12-06T10:07:29.994Z,28.98
2022-12-06T10:09:12.122Z,34.65
2022-12-06T10:10:51.902Z,31.05
2022-12-06T10:12:29.672Z,26.58
2022-12-06T10:14:05.267Z,36.63
2022-12-06T10:15:47.635Z,35.80
2022-12-06T10:17:27.017Z,28.58
2022-12-06T10:19:11.871Z,31.73
2022-12-06T10:20:53.397Z,30.65
2022-12-06T10:22:30.852Z,35.05
2022-12-06T10:24:15.147Z,34.20
2022-12-06T10:25:49.508Z,37.80
2022-12-06T10:27:23.766Z,29.15
2022-12-06T10:28:58.897Z,28.75
2022-12-06T10:30:30.738Z,26.33
2022-12-06T10:32:04.780Z,37.95
2022-12-06T10:33:40.927Z,34.22
2022-12-06T10:35:17.729Z,33.70
2022-12-06T10:37:00.760Z,35.45
2022-12-06T10:38:37.294Z,28.48
2022-12-06T10:40:14.481Z,26.25
2022-12-06T10:43:53.119Z,29.08
2022-12-06T10:45:45.804Z,31.17
2022-12-06T10:47:19.643Z,30.27
2022-12-06T10:48:57.058Z,28.25
2022-12-06T10:50:30.271Z,26.13
2022-12-06T10:52:03.437Z,49.30
2022-12-06T10:53:38.703Z,49.78
2022-12-06T10:55:16.525Z,39.95
2022-12-06T10:56:49.095Z,30.58
2022-12-06T10:58:29.248Z,36.67
2022-12-06T11:00:04.267Z,28.42
2022-12-06T11:01:41.807Z,27.50
2022-12-06T11:03:15.775Z,28.70
2022-12-06T11:04:47.443Z,35.80
2022-12-06T11:06:23.027Z,35.85
2022-12-06T11:07:59.530Z,39.13
2022-12-06T11:09:40.186Z,39.83
2022-12-06T11:11:15.267Z,33.10
2022-12-06T11:12:46.950Z,34.40
2022-12-06T11:14:21.078Z,33.83
2022-12-06T11:15:54.842Z,44.70
2022-12-06T11:17:27.596Z,37.00
2022-12-06T11:19:03.062Z,32.83
2022-12-06T11:20:38.801Z,31.20
2022-12-06T11:22:14.151Z,27.55
2022-12-06T11:23:56.663Z,27.40
2022-12-06T11:25:42.313Z,24.00
2022-12-06T11:27:15.997Z,27.13
2022-12-06T11:28:52.420Z,26.52
2022-12-06T11:30:26.513Z,26.10
2022-12-06T11:31:59.797Z,26.73
2022-12-06T11:33:34.532Z,26.88
2022-12-06T11:35:20.742Z,26.38
2022-12-06T11:37:00.044Z,29.10
2022-12-06T11:38:35.146Z,25.80
2022-12-06T11:40:08.465Z,27.27
2022-12-06T11:41:41.431Z,28.27
2022-12-06T11:43:17.628Z,27.00
2022-12-06T11:44:53.433Z,25.85
2022-12-06T11:46:25.384Z,25.98
2022-12-06T11:47:57.633Z,25.13
2022-12-06T11:49:32.715Z,23.88
2022-12-06T11:51:11.303Z,24.85
2022-12-06T11:52:44.287Z,27.67
2022-12-06T11:54:20.610Z,23.98
2022-12-06T11:55:53.094Z,23.40
2022-12-06T11:57:27.563Z,25.42
2022-12-06T11:59:22.694Z,25.58
2022-12-06T12:00:59.802Z,22.55
2022-12-06T12:02:31.865Z,22.40
2022-12-06T12:04:23.590Z,26.52
2022-12-06T12:06:07.415Z,25.10
2022-12-06T12:07:39.422Z,22.85
2022-12-06T12:09:16.902Z,25.45
2022-12-06T12:10:58.001Z,63.17
2022-12-06T12:12:59.931Z,45.58
2022-12-06T12:14:37.705Z,33.88
2022-12-06T12:16:15.251Z,26.38
2022-12-06T12:17:47.821Z,21.63
2022-12-06T12:19:28.589Z,26.23
2022-12-06T12:21:00.249Z,24.63
2022-12-06T12:22:36.063Z,29.55
2022-12-06T12:25:17.314Z,34.55
2022-12-06T12:26:39.802Z,23.33
2022-12-06T12:28:24.535Z,22.98
2022-12-06T12:30:18.605Z,23.83
2022-12-06T12:31:53.434Z,23.58
2022-12-06T12:33:25.379Z,22.35
2022-12-06T12:34:56.989Z,22.45
2022-12-06T12:36:28.786Z,27.25
2022-12-06T12:38:01.079Z,28.95
2022-12-06T12:39:33.613Z,28.27
2022-12-06T12:41:21.297Z,41.70
2022-12-06T12:42:57.887Z,30.83
2022-12-06T12:44:38.158Z,26.27
2022-12-06T12:46:18.546Z,23.20
2022-12-06T12:47:57.825Z,23.48
2022-12-06T12:49:31.929Z,24.17
2022-12-06T12:51:05.136Z,27.20
2022-12-06T12:52:38.336Z,26.63
2022-12-06T12:54:19.870Z,28.55
2022-12-06T12:55:51.994Z,22.92
2022-12-06T12:57:23.650Z,21.85
2022-12-06T12:58:55.817Z,24.35
2022-12-06T13:00:30.019Z,25.15
2022-12-06T13:02:03.914Z,24.67
2022-12-06T13:03:53.857Z,24.88
2022-12-06T13:05:35.796Z,25.25
2022-12-06T13:07:14.552Z,23.52
2022-12-06T13:08:46.161Z,24.55
2022-12-06T13:10:29.504Z,27.85
2022-12-06T13:12:03.700Z,23.83
2022-12-06T13:13:36.119Z,24.75
2022-12-06T13:15:11.562Z,24.75
2022-12-06T13:16:44.582Z,29.00
2022-12-06T13:18:19.332Z,24.42
2022-12-06T13:19:53.564Z,25.05
2022-12-06T13:21:30.668Z,26.27
2022-12-06T13:23:03.848Z,24.30
2022-12-06T13:24:36.505Z,24.67
2022-12-06T13:26:14.068Z,23.70
2022-12-06T13:27:46.355Z,22.90
2022-12-06T13:29:23.015Z,26.90
2022-12-06T13:31:00.952Z,29.02
2022-12-06T13:32:36.809Z,22.77
2022-12-06T13:34:24.810Z,22.50
2022-12-06T13:35:58.604Z,22.95
2022-12-06T13:37:34.369Z,23.40
2022-12-06T13:39:42.208Z,21.67
2022-12-06T13:41:14.141Z,22.27
2022-12-06T13:42:45.873Z,22.58
2022-12-06T13:44:41.674Z,26.83
2022-12-06T13:46:32.610Z,31.45
2022-12-06T13:48:27.077Z,27.13
2022-12-06T13:49:59.514Z,28.20
2022-12-06T13:51:58.185Z,23.15
2022-12-06T13:53:34.004Z,25.65
2022-12-06T13:55:45.549Z,27.15
2022-12-06T13:57:24.640Z,27.38
2022-12-06T13:58:56.960Z,24.00
2022-12-06T14:00:47.059Z,23.65
2022-12-06T14:02:51.668Z,21.50
2022-12-06T14:06:13.806Z,21.55
2022-12-06T14:07:45.842Z,21.27
2022-12-06T14:09:17.585Z,21.30
2022-12-06T14:10:49.187Z,20.35
2022-12-06T14:12:21.402Z,21.30
2022-12-06T14:14:00.717Z,19.80
2022-12-06T14:15:32.464Z,21.50
2022-12-06T14:17:04.992Z,20.13
2022-12-06T14:18:38.431Z,20.42
2022-12-06T14:20:18.764Z,20.80
2022-12-06T14:21:53.291Z,20.15
2022-12-06T14:23:27.432Z,22.10
2022-12-06T14:25:01.186Z,20.40
2022-12-06T14:26:33.581Z,19.50
2022-12-06T14:28:06.664Z,20.50
2022-12-06T14:29:38.485Z,20.27
2022-12-06T14:31:26.252Z,19.08
2022-12-06T14:32:58.238Z,19.30
2022-12-06T14:34:30.531Z,20.55
2022-12-06T14:36:03.879Z,20.60
2022-12-06T14:37:35.596Z,20.30
2022-12-06T14:39:08.346Z,19.88
2022-12-06T14:41:13.750Z,21.45
2022-12-06T14:43:03.814Z,21.00
2022-12-06T14:44:35.558Z,20.83
2022-12-06T14:46:10.151Z,20.88
2022-12-06T14:47:43.323Z,19.38
2022-12-06T14:49:36.065Z,21.00
2022-12-06T14:51:23.052Z,21.75
2022-12-06T14:53:03.813Z,20.90
2022-12-06T14:54:40.737Z,21.00
2022-12-06T14:56:21.510Z,22.23
2022-12-06T14:57:55.863Z,24.30
2022-12-06T15:00:10.778Z,22.33
2022-12-06T15:01:21.994Z,22.50
2022-12-06T15:03:01.769Z,22.80
2022-12-06T15:04:36.113Z,21.92
2022-12-06T15:06:17.134Z,21.00
2022-12-06T15:07:48.856Z,20.70
2022-12-06T15:09:22.240Z,20.45
2022-12-06T15:10:54.353Z,20.15
2022-12-06T15:12:46.555Z,21.80
2022-12-06T15:14:18.883Z,22.20
2022-12-06T15:16:01.491Z,21.25
2022-12-06T15:17:33.164Z,21.58
2022-12-06T15:19:05.760Z,23.15
2022-12-06T15:20:37.437Z,22.80
2022-12-06T15:22:14.059Z,21.98
2022-12-06T15:23:48.754Z,21.42
2022-12-06T15:25:20.516Z,21.30
2022-12-06T15:26:52.310Z,21.45
2022-12-06T15:28:24.087Z,22.27
2022-12-06T15:29:55.816Z,21.33
2022-12-06T15:31:28.081Z,22.35
2022-12-06T15:32:59.959Z,22.05
2022-12-06T15:34:32.360Z,22.80
2022-12-06T15:36:04.169Z,23.90
2022-12-06T15:37:39.155Z,22.88
2022-12-06T15:39:12.354Z,25.52
2022-12-06T15:40:44.977Z,23.85
2022-12-06T15:42:22.958Z,21.75
2022-12-06T15:43:54.916Z,22.92
2022-12-06T15:45:26.582Z,22.10
2022-12-06T15:46:58.245Z,21.77
2022-12-06T15:48:30.136Z,21.65
2022-12-06T15:50:03.723Z,21.63
2022-12-06T15:51:35.368Z,23.27
2022-12-06T15:53:09.965Z,23.05
2022-12-06T15:54:41.606Z,23.50
2022-12-06T15:56:14.799Z,25.60
2022-12-06T15:57:46.448Z,35.72
2022-12-06T15:59:18.532Z,32.97
2022-12-06T16:00:50.244Z,32.90
2022-12-06T16:02:21.915Z,28.40
2022-12-06T16:03:54.733Z,26.15
2022-12-06T16:05:26.454Z,23.08
2022-12-06T16:06:58.152Z,23.27
2022-12-06T16:08:31.238Z,23.63
2022-12-06T16:10:02.863Z,22.60
2022-12-06T16:11:34.519Z,23.25
2022-12-06T16:13:21.559Z,21.58
2022-12-06T16:14:53.196Z,22.27
2022-12-06T16:16:24.956Z,23.98
2022-12-06T16:17:56.642Z,22.75
2022-12-06T16:19:48.279Z,22.00
2022-12-06T16:21:21.641Z,20.30
2022-12-06T16:23:12.070Z,20.98
2022-12-06T16:24:49.455Z,21.55
2022-12-06T16:26:24.068Z,21.45
2022-12-06T16:27:55.718Z,21.88
2022-12-06T16:29:27.352Z,21.15
2022-12-06T16:30:59.158Z,21.38
2022-12-06T16:32:30.771Z,23.17
2022-12-06T16:34:02.447Z,22.40
2022-12-06T16:35:34.099Z,23.38
2022-12-06T16:37:09.007Z,20.60
2022-12-06T16:38:40.784Z,22.08
2022-12-06T16:40:14.929Z,22.38
2022-12-06T16:41:46.715Z,21.73
2022-12-06T16:43:18.336Z,21.15
2022-12-06T16:44:52.597Z,21.98
2022-12-06T16:46:29.541Z,22.30
2022-12-06T16:48:01.252Z,22.60
2022-12-06T16:49:49.572Z,19.90
2022-12-06T16:51:21.356Z,22.60
2022-12-06T16:52:52.998Z,21.70
2022-12-06T16:54:24.605Z,21.65
2022-12-06T16:55:57.600Z,24.17
2022-12-06T16:57:29.269Z,22.17
2022-12-06T16:59:01.382Z,20.60
2022-12-06T17:00:33.195Z,21.98
2022-12-06T17:02:13.175Z,20.33
2022-12-06T17:03:49.389Z,19.90
2022-12-06T17:05:21.727Z,21.50
2022-12-06T17:06:53.486Z,19.92
2022-12-06T17:08:25.186Z,20.27
2022-12-06T17:09:56.947Z,24.40
2022-12-06T17:11:49.035Z,26.38
2022-12-06T17:13:20.670Z,22.92
2022-12-06T17:14:52.359Z,22.35
2022-12-06T17:16:24.023Z,21.05
2022-12-06T17:17:55.706Z,19.88
2022-12-06T17:19:28.222Z,20.83
2022-12-06T17:21:00.145Z,24.27
2022-12-06T17:22:34.819Z,20.77
2022-12-06T17:24:07.038Z,19.73
2022-12-06T17:25:38.769Z,20.92
2022-12-06T17:27:14.352Z,21.15
2022-12-06T17:28:46.046Z,19.25
2022-12-06T17:30:17.996Z,19.27
2022-12-06T17:31:49.880Z,18.83
2022-12-06T17:33:21.589Z,18.95
2022-12-06T17:34:53.255Z,21.67
2022-12-06T17:36:25.707Z,21.80
2022-12-06T17:37:57.438Z,21.70
2022-12-06T17:39:29.113Z,21.15
2022-12-06T17:41:00.799Z,20.50
2022-12-06T17:42:52.251Z,23.10
2022-12-06T17:44:24.036Z,21.30
2022-12-06T17:45:55.820Z,21.15
2022-12-06T17:47:27.513Z,23.33
2022-12-06T17:48:59.264Z,24.55
2022-12-06T17:50:30.875Z,23.90
2022-12-06T17:52:02.512Z,23.45
2022-12-06T17:53:34.161Z,23.48
2022-12-06T17:55:06.007Z,21.13
2022-12-06T17:56:38.191Z,22.88
2022-12-06T17:58:11.159Z,24.90
2022-12-06T17:59:42.904Z,27.27
2022-12-06T18:01:14.652Z,24.65
2022-12-06T18:02:46.564Z,30.40
2022-12-06T18:04:18.248Z,37.35
2022-12-06T18:05:49.896Z,27.70
2022-12-06T18:07:21.552Z,24.25
2022-12-06T18:08:53.188Z,26.17
2022-12-06T18:10:24.811Z,26.20
2022-12-06T18:11:56.731Z,27.13
2022-12-06T18:13:30.615Z,25.77
2022-12-06T18:15:25.141Z,26.35
2022-12-06T18:16:56.961Z,25.95
2022-12-06T18:18:28.666Z,23.40
2022-12-06T18:20:00.464Z,24.70
2022-12-06T18:21:32.286Z,23.42
2022-12-06T18:23:03.921Z,22.85
2022-12-06T18:24:36.407Z,25.95
2022-12-06T18:26:13.062Z,26.75
2022-12-06T18:27:44.735Z,24.92
2022-12-06T18:29:18.937Z,25.10
2022-12-06T18:30:50.600Z,25.92
2022-12-06T18:32:22.451Z,23.15
2022-12-06T18:33:54.230Z,24.60
2022-12-06T18:35:25.918Z,26.65
2022-12-06T18:36:57.569Z,25.83
2022-12-06T18:38:29.454Z,25.67
2022-12-06T18:40:01.380Z,24.05
2022-12-06T18:41:33.195Z,24.23
2022-12-06T18:43:04.809Z,22.80
2022-12-06T18:44:37.774Z,24.52
2022-12-06T18:46:11.695Z,25.77
2022-12-06T18:47:43.413Z,24.48
2022-12-06T18:49:15.091Z,26.63
2022-12-06T18:50:46.720Z,30.45
2022-12-06T18:52:18.331Z,28.02
2022-12-06T18:53:50.162Z,28.25
2022-12-06T18:55:21.817Z,27.63
2022-12-06T18:56:53.458Z,28.65
2022-12-06T18:58:25.128Z,28.83
2022-12-06T18:59:58.432Z,29.63
2022-12-06T19:01:31.887Z,31.73
2022-12-06T19:03:03.855Z,32.85
2022-12-06T19:04:35.464Z,33.55
2022-12-06T19:06:11.063Z,34.88
2022-12-06T19:07:44.601Z,31.15
2022-12-06T19:09:16.503Z,32.58
2022-12-06T19:10:48.149Z,32.10
2022-12-06T19:12:19.806Z,30.48
2022-12-06T19:13:52.209Z,32.75
2022-12-06T19:15:25.256Z,32.20
2022-12-06T19:16:56.990Z,31.60
2022-12-06T19:18:28.656Z,30.08
2022-12-06T19:20:00.633Z,34.58
2022-12-06T19:21:33.028Z,34.85
2022-12-06T19:23:04.659Z,34.03
2022-12-06T19:24:36.374Z,31.77
2022-12-06T19:26:08.019Z,35.83
2022-12-06T19:27:39.655Z,33.13
2022-12-06T19:29:16.434Z,32.92
2022-12-06T19:30:57.715Z,31.17
2022-12-06T19:32:29.391Z,30.90
2022-12-06T19:34:01.253Z,33.10
2022-12-06T19:35:32.876Z,31.02
2022-12-06T19:37:04.543Z,35.05
2022-12-06T19:38:36.172Z,33.35
2022-12-06T19:40:08.745Z,32.72
2022-12-06T19:41:58.823Z,31.75
2022-12-06T19:43:48.729Z,33.00
2022-12-06T19:45:20.352Z,31.30
2022-12-06T19:46:53.354Z,33.17
2022-12-06T19:48:26.643Z,32.00
2022-12-06T19:49:58.542Z,33.38
2022-12-06T19:51:30.413Z,35.22
2022-12-06T19:53:02.266Z,33.83
2022-12-06T19:54:36.896Z,31.02
2022-12-06T19:56:09.650Z,33.78
2022-12-06T19:57:46.328Z,34.60
2022-12-06T19:59:17.966Z,30.90
2022-12-06T20:00:50.886Z,34.15
2022-12-06T20:02:24.001Z,37.55
2022-12-06T20:03:55.663Z,33.17
2022-12-06T20:05:27.290Z,35.92
2022-12-06T20:06:58.983Z,32.67
2022-12-06T20:08:30.630Z,33.55
2022-12-06T20:10:05.022Z,36.28
2022-12-06T20:12:04.903Z,33.75
2022-12-06T20:13:36.646Z,34.60
2022-12-06T20:15:09.173Z,37.17
2022-12-06T20:16:41.130Z,34.78
2022-12-06T20:18:14.078Z,35.00
2022-12-06T20:19:51.539Z,33.25
2022-12-06T20:21:23.238Z,36.35
2022-12-06T20:22:54.910Z,33.65
2022-12-06T20:24:26.532Z,35.17
2022-12-06T20:25:58.247Z,36.30
2022-12-06T20:27:50.972Z,36.58
2022-12-06T20:29:31.979Z,39.60
2022-12-06T20:31:10.118Z,36.03
2022-12-06T20:33:02.080Z,36.67
2022-12-06T20:34:46.618Z,43.17